Time;durP1;ratioP1;P1;durP2;ratioP2;P2;SDS_P1;SDS_P2;PMS_P1;PMS_P2;Temp;Humidity;BMP_temperature;BMP_pressure;BME280_temperature;BME280_humidity;BME280_pressure;Samples;Min_cycle;Max_cycle;Signal;HPM_P1;HPM_P2
2021/12/21 00:00:12;;;;;;;7.53;1.07;;;30.20;91.50;;;;;;5069750;28;20313;-69
2021/12/21 00:02:50;;;;;;;5.27;1.30;;;30.50;91.00;;;;;;5068213;28;20191;-68
2021/12/21 00:05:20;;;;;;;4.45;1.38;;;30.40;90.00;;;;;;5070565;28;20315;-67
2021/12/21 00:07:50;;;;;;;6.77;1.80;;;30.20;90.50;;;;;;5069708;28;20660;-67
2021/12/21 00:10:19;;;;;;;3.57;1.10;;;30.40;91.20;;;;;;5070684;28;20274;-69
2021/12/21 00:13:08;;;;;;;10.90;1.40;;;30.20;91.00;;;;;;5070454;28;20743;-68
2021/12/21 00:23:38;;;;;;;4.00;1.23;;;31.10;89.20;;;;;;5065671;28;20183;-71
2021/12/21 00:26:09;;;;;;;5.17;1.57;;;31.10;88.30;;;;;;5069665;28;20236;-68
2021/12/21 00:28:51;;;;;;;9.73;1.65;;;31.50;88.80;;;;;;5070763;28;20175;-70
2021/12/21 00:31:19;;;;;;;6.77;1.53;;;31.30;89.40;;;;;;5069479;28;20206;-68
2021/12/21 00:33:47;;;;;;;5.87;1.23;;;31.30;88.50;;;;;;5070656;28;20203;-72
2021/12/21 00:36:17;;;;;;;4.65;1.35;;;31.20;88.80;;;;;;5068935;28;20183;-70
2021/12/21 00:38:46;;;;;;;5.15;1.45;;;31.20;88.10;;;;;;5066368;28;20198;-70
2021/12/21 00:41:15;;;;;;;4.30;1.30;;;31.30;88.70;;;;;;5069877;28;20635;-69
2021/12/21 00:43:42;;;;;;;5.00;1.40;;;31.50;87.50;;;;;;5067664;28;20184;-70
2021/12/21 00:46:10;;;;;;;5.80;1.60;;;31.80;86.90;;;;;;5069177;28;20187;-68
2021/12/21 00:48:41;;;;;;;5.72;1.38;;;31.90;86.40;;;;;;5074730;28;20194;-70
2021/12/21 00:51:08;;;;;;;5.33;1.50;;;31.90;84.70;;;;;;5072926;28;20190;-70
2021/12/21 00:53:37;;;;;;;5.00;1.20;;;31.70;85.20;;;;;;5075441;28;20201;-71
2021/12/21 00:56:05;;;;;;;4.28;1.15;;;31.90;85.00;;;;;;5075317;28;20175;-69
2021/12/21 00:58:32;;;;;;;6.82;1.23;;;32.10;84.40;;;;;;5074563;28;20223;-70
2021/12/21 01:01:04;;;;;;;5.65;1.52;;;32.40;84.20;;;;;;5075087;28;20202;-69
2021/12/21 01:03:37;;;;;;;4.15;1.10;;;32.40;83.10;;;;;;5069641;28;20183;-71
2021/12/21 01:06:19;;;;;;;5.15;1.17;;;32.50;83.30;;;;;;5074387;28;20198;-70
2021/12/21 01:09:07;;;;;;;4.20;1.10;;;32.40;83.80;;;;;;5075139;28;20183;-69
2021/12/21 01:11:40;;;;;;;2.85;0.90;;;32.60;82.60;;;;;;5057044;28;20206;-71
2021/12/21 01:17:18;;;;;;;4.75;1.23;;;32.10;84.70;;;;;;5071895;28;20727;-67
2021/12/21 01:19:59;;;;;;;5.57;1.52;;;32.40;84.80;;;;;;5074264;28;20182;-67
2021/12/21 01:25:25;;;;;;;3.20;1.38;;;32.30;84.60;;;;;;5073549;28;20183;-69
2021/12/21 01:30:37;;;;;;;7.57;1.48;;;32.60;85.30;;;;;;5074866;28;20645;-70
2021/12/21 01:33:23;;;;;;;4.97;1.40;;;32.80;83.90;;;;;;5071779;28;20272;-70
2021/12/21 01:35:53;;;;;;;5.22;1.50;;;32.70;84.50;;;;;;5075858;28;20187;-68
2021/12/21 01:38:50;;;;;;;4.95;1.50;;;32.80;84.10;;;;;;5074316;28;20248;-70
2021/12/21 01:41:32;;;;;;;3.97;1.00;;;32.80;84.40;;;;;;5076802;28;20266;-70
2021/12/21 01:52:09;;;;;;;10.05;1.38;;;33.00;83.50;;;;;;5074257;28;20298;-69
2021/12/21 01:54:37;;;;;;;5.30;2.00;;;33.10;83.10;;;;;;5074553;28;20274;-70
2021/12/21 01:57:07;;;;;;;4.88;1.20;;;33.10;83.20;;;;;;5080958;28;20264;-70
2021/12/21 01:59:39;;;;;;;4.28;1.30;;;33.20;82.60;;;;;;5073890;28;20258;-70
2021/12/21 02:02:08;;;;;;;7.57;1.52;;;33.00;82.60;;;;;;5074225;28;20211;-69
2021/12/21 02:04:40;;;;;;;6.97;1.38;;;33.10;82.50;;;;;;5074278;28;20183;-69
2021/12/21 02:07:09;;;;;;;4.57;1.35;;;33.10;83.00;;;;;;5073403;28;20210;-70
2021/12/21 02:09:37;;;;;;;10.30;1.30;;;33.50;82.80;;;;;;5077480;28;20248;-70
2021/12/21 02:12:09;;;;;;;7.25;1.48;;;33.70;81.60;;;;;;5074862;28;20340;-73
2021/12/21 02:14:37;;;;;;;3.92;1.10;;;33.60;82.20;;;;;;5074326;28;20186;-70
2021/12/21 02:20:41;;;;;;;2.88;1.10;;;33.50;82.00;;;;;;5072486;28;20247;-68
2021/12/21 02:23:05;;;;;;;6.28;1.50;;;33.60;82.90;;;;;;5072477;28;20191;-70
2021/12/21 02:25:51;;;;;;;4.55;1.30;;;33.70;81.90;;;;;;5069248;28;20175;-70
2021/12/21 02:28:35;;;;;;;7.03;0.95;;;34.00;81.90;;;;;;5073920;28;20236;-69
2021/12/21 02:31:02;;;;;;;3.25;0.90;;;34.10;82.00;;;;;;5072620;28;20179;-68
2021/12/21 02:33:30;;;;;;;4.25;1.23;;;33.80;81.90;;;;;;5073694;28;20225;-70
2021/12/21 02:35:58;;;;;;;3.40;1.35;;;33.90;81.70;;;;;;5055701;28;20206;-70
2021/12/21 02:38:27;;;;;;;4.13;1.25;;;33.80;80.70;;;;;;5072965;28;20179;-67
2021/12/21 02:40:55;;;;;;;4.00;1.02;;;34.00;81.50;;;;;;5073437;28;20258;-69
2021/12/21 02:43:22;;;;;;;6.05;1.30;;;33.70;81.40;;;;;;5073677;28;20178;-71
2021/12/21 02:45:59;;;;;;;8.80;1.23;;;33.80;82.60;;;;;;5073432;28;20258;-69
2021/12/21 02:48:26;;;;;;;6.78;1.55;;;34.30;80.70;;;;;;5073458;28;20178;-69
2021/12/21 02:50:54;;;;;;;4.68;1.13;;;34.60;80.10;;;;;;5073154;28;20169;-69
2021/12/21 02:53:21;;;;;;;5.00;1.33;;;34.50;80.90;;;;;;5069959;28;20215;-69
2021/12/21 02:55:49;;;;;;;7.75;1.60;;;34.40;81.00;;;;;;5072988;28;20187;-71
2021/12/21 02:58:22;;;;;;;11.00;1.75;;;34.50;80.70;;;;;;5072923;28;20238;-70
2021/12/21 03:00:52;;;;;;;3.03;1.13;;;34.70;80.50;;;;;;5073033;28;20190;-71
2021/12/21 03:03:20;;;;;;;5.65;1.27;;;34.50;80.80;;;;;;5073335;28;20175;-67
2021/12/21 03:05:56;;;;;;;6.05;1.73;;;34.20;81.20;;;;;;5072492;28;20198;-68
2021/12/21 03:08:36;;;;;;;4.25;1.30;;;34.00;80.80;;;;;;5072913;28;20190;-72
2021/12/21 03:16:21;;;;;;;5.15;1.35;;;34.00;82.10;;;;;;5069314;28;20198;-73
2021/12/21 03:18:49;;;;;;;5.85;1.38;;;34.30;83.00;;;;;;5075022;28;20183;-71
2021/12/21 03:21:18;;;;;;;5.60;1.23;;;34.60;81.50;;;;;;5072096;28;20226;-72
2021/12/21 03:23:45;;;;;;;3.45;1.05;;;34.50;82.50;;;;;;5059647;28;20617;-72
2021/12/21 03:26:13;;;;;;;6.97;1.50;;;34.20;82.10;;;;;;5072240;28;20637;-71
2021/12/21 03:28:44;;;;;;;5.18;1.70;;;34.20;82.40;;;;;;5055344;28;20183;-70
2021/12/21 03:31:11;;;;;;;7.90;1.23;;;34.80;82.20;;;;;;5074965;28;20350;-70
2021/12/21 03:33:39;;;;;;;4.78;1.10;;;34.60;80.70;;;;;;5070331;28;20183;-69
2021/12/21 03:36:06;;;;;;;4.75;1.08;;;34.60;80.30;;;;;;5072746;28;20171;-71
2021/12/21 03:38:35;;;;;;;3.58;1.13;;;34.40;80.70;;;;;;5072510;28;20203;-72
2021/12/21 03:41:12;;;;;;;3.63;0.93;;;34.90;80.30;;;;;;5075268;28;20186;-72
2021/12/21 03:43:40;;;;;;;3.95;1.40;;;34.70;78.80;;;;;;5065828;28;20182;-71
2021/12/21 03:46:12;;;;;;;3.83;1.40;;;34.70;79.30;;;;;;5074655;28;20186;-72
2021/12/21 03:48:42;;;;;;;4.43;1.13;;;34.20;79.10;;;;;;5072084;28;20183;-67
2021/12/21 03:51:11;;;;;;;5.50;1.30;;;34.60;79.90;;;;;;5070969;28;20186;-68
2021/12/21 03:53:39;;;;;;;7.03;1.50;;;34.50;79.90;;;;;;5078873;28;20183;-69
2021/12/21 03:58:34;;;;;;;3.20;0.98;;;34.90;78.80;;;;;;5072372;28;20831;-68
2021/12/21 04:01:02;;;;;;;6.25;1.10;;;35.40;78.70;;;;;;5075734;28;20171;-68
2021/12/21 04:03:29;;;;;;;7.78;1.80;;;35.60;78.10;;;;;;5072774;28;20206;-67
2021/12/21 04:05:56;;;;;;;4.55;1.25;;;36.00;77.70;;;;;;5072163;28;20175;-68
2021/12/21 04:08:25;;;;;;;9.90;1.25;;;35.30;77.90;;;;;;5071814;28;20313;-68
2021/12/21 04:10:52;;;;;;;6.10;1.27;;;35.10;78.60;;;;;;5073906;28;20188;-68
2021/12/21 04:13:20;;;;;;;4.20;1.17;;;35.20;78.60;;;;;;5072091;28;20244;-68
2021/12/21 04:15:53;;;;;;;5.80;1.42;;;35.00;79.00;;;;;;5073738;28;20714;-70
2021/12/21 04:18:23;;;;;;;6.70;1.45;;;35.20;79.30;;;;;;5072206;28;20187;-69
2021/12/21 04:20:50;;;;;;;3.45;1.10;;;35.70;79.20;;;;;;5071822;28;20175;-68
2021/12/21 04:23:18;;;;;;;4.68;1.45;;;35.50;79.00;;;;;;5071670;28;20194;-68
2021/12/21 04:25:46;;;;;;;5.35;1.48;;;35.10;79.20;;;;;;5079821;28;20182;-67
2021/12/21 04:28:13;;;;;;;5.43;1.40;;;35.10;79.80;;;;;;5078628;28;20179;-68
2021/12/21 04:30:40;;;;;;;6.85;1.80;;;35.40;79.00;;;;;;5075996;28;20186;-69
2021/12/21 04:33:08;;;;;;;6.38;1.08;;;35.50;77.80;;;;;;5071127;28;20642;-68
2021/12/21 04:35:35;;;;;;;6.50;1.40;;;35.80;78.40;;;;;;5072048;28;20179;-69
2021/12/21 04:38:19;;;;;;;5.00;1.35;;;36.20;77.80;;;;;;5071840;28;20224;-69
2021/12/21 04:40:53;;;;;;;5.68;1.45;;;36.20;76.30;;;;;;5066755;28;20260;-69
2021/12/21 04:43:20;;;;;;;3.72;1.02;;;36.20;77.30;;;;;;5072208;28;20175;-69
2021/12/21 04:45:48;;;;;;;6.05;2.00;;;36.70;76.50;;;;;;5071494;28;20167;-69
2021/12/21 04:48:15;;;;;;;4.00;1.30;;;36.40;76.20;;;;;;5071856;28;20183;-69
2021/12/21 04:50:44;;;;;;;8.90;1.50;;;36.20;75.80;;;;;;5069539;28;20179;-70
2021/12/21 04:53:11;;;;;;;3.40;1.25;;;36.30;76.90;;;;;;5061169;28;20229;-69
2021/12/21 04:55:39;;;;;;;6.18;1.65;;;35.80;77.80;;;;;;5071417;28;20172;-69
2021/12/21 04:58:06;;;;;;;8.23;1.48;;;36.30;77.60;;;;;;5071391;28;20241;-70
2021/12/21 05:00:35;;;;;;;8.48;1.92;;;36.90;76.60;;;;;;5071285;28;20175;-70
2021/12/21 05:03:02;;;;;;;4.03;1.55;;;37.10;76.00;;;;;;5071582;28;20259;-70
2021/12/21 05:05:30;;;;;;;5.97;1.52;;;36.60;77.10;;;;;;5071595;28;20191;-67
2021/12/21 05:08:09;;;;;;;8.65;1.75;;;37.00;77.30;;;;;;5071182;28;20641;-70
2021/12/21 05:13:41;;;;;;;6.57;1.63;;;36.40;77.60;;;;;;5061476;28;20199;-68
2021/12/21 05:16:09;;;;;;;7.70;2.10;;;36.60;78.00;;;;;;5070946;28;20277;-71
2021/12/21 05:18:36;;;;;;;6.65;1.75;;;36.40;77.80;;;;;;5053811;28;20187;-69
2021/12/21 05:21:05;;;;;;;6.80;1.95;;;35.90;79.10;;;;;;5071016;28;20190;-70
2021/12/21 05:23:32;;;;;;;6.25;1.60;;;35.50;80.30;;;;;;5073897;28;20171;-70
2021/12/21 05:26:00;;;;;;;8.50;1.90;;;34.40;81.90;;;;;;5073954;28;20183;-68
2021/12/21 05:28:27;;;;;;;7.13;1.45;;;35.00;82.20;;;;;;5071932;28;20228;-70
2021/12/21 05:30:54;;;;;;;4.35;1.40;;;35.40;80.70;;;;;;5071675;28;20206;-70
2021/12/21 05:33:22;;;;;;;5.53;1.70;;;34.60;80.30;;;;;;5072861;28;20744;-70
2021/12/21 05:35:49;;;;;;;8.93;1.73;;;34.20;80.90;;;;;;5075299;28;20212;-70
2021/12/21 05:38:24;;;;;;;6.05;1.95;;;33.90;81.00;;;;;;5074867;28;20179;-70
2021/12/21 05:40:53;;;;;;;8.35;1.98;;;34.30;80.90;;;;;;5075518;28;20179;-72
2021/12/21 05:43:21;;;;;;;5.80;1.50;;;34.50;80.00;;;;;;5074523;28;20183;-69
2021/12/21 05:45:48;;;;;;;5.40;1.75;;;34.60;80.40;;;;;;5074534;28;20218;-69
2021/12/21 05:48:15;;;;;;;8.52;1.92;;;35.60;78.40;;;;;;5076263;28;20677;-68
2021/12/21 05:50:43;;;;;;;5.18;1.60;;;35.50;78.50;;;;;;5075151;28;20190;-69
2021/12/21 05:53:10;;;;;;;7.07;1.48;;;35.80;77.70;;;;;;5074091;28;20225;-70
2021/12/21 05:55:39;;;;;;;7.40;1.63;;;36.40;77.00;;;;;;5073069;28;20283;-69
2021/12/21 05:58:07;;;;;;;7.88;1.77;;;35.50;77.90;;;;;;5074791;28;20626;-70
2021/12/21 06:00:35;;;;;;;5.88;1.90;;;36.00;77.70;;;;;;5074925;28;20175;-68
2021/12/21 06:03:03;;;;;;;9.50;1.60;;;35.50;78.70;;;;;;5073954;28;20547;-69
2021/12/21 06:05:31;;;;;;;6.30;1.65;;;35.20;79.10;;;;;;5075360;28;20214;-67
2021/12/21 06:07:58;;;;;;;6.50;1.60;;;34.90;78.70;;;;;;5075032;28;20181;-70
2021/12/21 06:10:36;;;;;;;7.38;1.90;;;35.40;78.20;;;;;;5074224;28;20721;-69
2021/12/21 06:26:16;;;;;;;6.80;1.73;;;35.30;76.30;;;;;;5076771;28;20187;-71
2021/12/21 06:28:46;;;;;;;4.95;1.42;;;35.50;76.80;;;;;;5074422;28;20180;-69
2021/12/21 06:31:17;;;;;;;6.05;1.50;;;35.50;76.70;;;;;;5072482;28;20274;-71
2021/12/21 06:33:44;;;;;;;5.13;2.10;;;34.30;77.10;;;;;;5073661;28;20179;-69
2021/12/21 06:36:12;;;;;;;4.72;1.70;;;34.50;77.70;;;;;;5065597;28;20194;-69
2021/12/21 06:38:43;;;;;;;4.90;1.73;;;34.10;77.70;;;;;;5070955;28;20179;-71
2021/12/21 06:41:10;;;;;;;4.35;1.67;;;34.50;77.10;;;;;;5073861;28;20258;-70
2021/12/21 06:43:41;;;;;;;4.63;1.50;;;34.60;77.00;;;;;;5075227;28;20265;-70
2021/12/21 06:46:18;;;;;;;9.65;2.15;;;35.00;76.90;;;;;;5073320;28;20178;-71
2021/12/21 06:51:50;;;;;;;7.78;1.70;;;34.50;76.70;;;;;;5067758;28;20189;-69
2021/12/21 06:54:21;;;;;;;10.70;2.15;;;34.40;76.50;;;;;;5068842;28;20171;-70
2021/12/21 06:56:51;;;;;;;4.28;1.50;;;34.80;76.80;;;;;;5073684;28;20273;-69
2021/12/21 06:59:18;;;;;;;3.10;1.45;;;34.90;76.40;;;;;;5073559;28;20171;-68
2021/12/21 07:01:48;;;;;;;7.15;1.88;;;35.00;76.70;;;;;;5055141;28;20811;-72
2021/12/21 07:04:20;;;;;;;4.80;1.52;;;33.50;78.80;;;;;;5073395;28;20590;-71
2021/12/21 07:06:48;;;;;;;6.32;1.80;;;33.70;79.50;;;;;;5073434;28;20187;-69
2021/12/21 07:09:23;;;;;;;4.80;1.52;;;33.60;78.90;;;;;;5075407;28;20191;-73
2021/12/21 07:12:09;;;;;;;5.57;2.22;;;32.90;80.40;;;;;;5073514;28;20561;-71
2021/12/21 07:20:08;;;;;;;5.82;1.65;;;32.40;81.00;;;;;;5072321;28;20206;-68
2021/12/21 07:22:36;;;;;;;7.45;1.60;;;32.60;81.40;;;;;;5072713;28;20544;-71
2021/12/21 07:25:10;;;;;;;13.20;2.15;;;32.20;81.80;;;;;;5066776;28;20195;-73
2021/12/21 07:27:38;;;;;;;7.90;2.10;;;31.60;82.20;;;;;;5055708;28;20655;-69
2021/12/21 07:30:06;;;;;;;6.78;1.70;;;30.80;83.10;;;;;;5072384;28;20175;-71
2021/12/21 07:32:34;;;;;;;6.55;1.48;;;30.60;84.30;;;;;;5075802;28;20203;-68
2021/12/21 07:35:01;;;;;;;5.32;2.20;;;30.60;84.50;;;;;;5072668;28;20264;-69
2021/12/21 07:37:28;;;;;;;9.07;1.87;;;30.60;84.10;;;;;;5067815;28;20194;-68
2021/12/21 07:39:56;;;;;;;6.88;2.00;;;30.50;84.40;;;;;;5074376;28;20639;-68
2021/12/21 07:42:24;;;;;;;6.90;1.57;;;30.40;85.70;;;;;;5075574;28;20179;-69
2021/12/21 07:44:51;;;;;;;5.90;1.80;;;30.10;86.50;;;;;;5072127;28;20183;-68
2021/12/21 07:47:19;;;;;;;5.78;2.08;;;30.10;86.50;;;;;;5077050;28;20292;-69
2021/12/21 07:49:47;;;;;;;7.07;1.67;;;29.80;87.60;;;;;;5067415;28;20191;-70
2021/12/21 07:52:15;;;;;;;5.03;1.50;;;29.70;89.30;;;;;;5078193;28;20660;-67
2021/12/21 07:54:42;;;;;;;8.10;1.70;;;29.60;90.00;;;;;;5072109;28;20280;-69
2021/12/21 07:57:10;;;;;;;8.63;1.63;;;29.30;90.00;;;;;;5074861;28;20223;-71
2021/12/21 07:59:39;;;;;;;7.40;2.10;;;29.40;89.60;;;;;;5072225;28;20191;-69
2021/12/21 08:02:08;;;;;;;11.47;1.77;;;29.10;90.50;;;;;;5071733;28;20175;-69
2021/12/21 08:04:36;;;;;;;9.33;1.43;;;28.90;91.00;;;;;;5071067;28;20194;-67
2021/12/21 08:07:10;;;;;;;7.47;1.60;;;28.80;92.00;;;;;;5069532;28;20195;-67
2021/12/21 08:09:42;;;;;;;8.87;2.03;;;28.80;92.20;;;;;;5054701;28;20606;-68
2021/12/21 08:12:17;;;;;;;5.53;1.43;;;28.50;92.70;;;;;;5071870;28;20207;-68
2021/12/21 08:14:45;;;;;;;10.00;2.10;;;28.60;93.40;;;;;;5070344;28;20202;-68
2021/12/21 08:17:14;;;;;;;5.27;1.50;;;28.80;93.70;;;;;;5071717;28;20175;-67
2021/12/21 08:19:41;;;;;;;6.00;1.60;;;28.60;94.70;;;;;;5067243;28;20275;-68
2021/12/21 08:22:08;;;;;;;8.33;2.10;;;28.40;95.40;;;;;;5074329;28;20298;-68
2021/12/21 08:24:36;;;;;;;10.40;2.50;;;28.30;96.10;;;;;;5069645;28;20218;-68
2021/12/21 08:27:04;;;;;;;8.33;1.87;;;27.90;97.00;;;;;;5069634;28;20185;-67
2021/12/21 08:29:32;;;;;;;7.80;2.23;;;27.80;97.70;;;;;;5076855;28;20171;-69
2021/12/21 08:31:59;;;;;;;4.83;1.70;;;27.70;98.40;;;;;;5071272;28;20614;-68
2021/12/21 08:34:26;;;;;;;13.23;2.30;;;27.60;99.10;;;;;;5072366;28;20514;-70
2021/12/21 08:36:54;;;;;;;8.43;1.97;;;27.50;99.70;;;;;;5067840;28;20184;-70
2021/12/21 08:39:23;;;;;;;13.13;2.27;;;27.30;99.90;;;;;;5071622;28;20183;-68
2021/12/21 08:41:57;;;;;;;9.03;2.20;;;27.00;99.90;;;;;;5066387;28;20181;-68
2021/12/21 08:44:25;;;;;;;6.27;2.07;;;27.10;99.90;;;;;;5069585;28;20518;-68
2021/12/21 08:46:58;;;;;;;9.47;2.07;;;27.20;99.90;;;;;;5071529;28;20650;-69
2021/12/21 08:49:26;;;;;;;9.50;2.10;;;27.10;99.90;;;;;;5067951;28;20167;-68
2021/12/21 08:51:56;;;;;;;9.33;2.50;;;27.10;99.90;;;;;;5071626;28;20205;-68
2021/12/21 08:54:24;;;;;;;7.70;2.30;;;27.10;99.90;;;;;;5069852;28;20179;-68
2021/12/21 08:56:55;;;;;;;7.87;1.87;;;27.00;99.90;;;;;;5071205;28;20704;-68
2021/12/21 08:59:22;;;;;;;7.00;1.80;;;27.00;99.90;;;;;;5074798;28;20179;-71
2021/12/21 09:01:53;;;;;;;11.30;2.17;;;27.10;99.90;;;;;;5071192;28;20175;-68
2021/12/21 09:04:27;;;;;;;9.57;1.80;;;27.00;99.90;;;;;;5076896;28;20620;-68
2021/12/21 09:06:55;;;;;;;13.67;2.50;;;27.00;99.90;;;;;;5075495;28;20219;-68
2021/12/21 09:09:22;;;;;;;9.33;2.17;;;26.90;99.90;;;;;;5074844;28;20276;-69
2021/12/21 09:11:50;;;;;;;8.23;1.90;;;26.80;99.90;;;;;;5075259;28;20202;-70
2021/12/21 09:14:18;;;;;;;11.13;2.50;;;26.70;99.90;;;;;;5077894;28;20176;-70
2021/12/21 09:16:47;;;;;;;10.43;2.17;;;26.80;99.90;;;;;;5076858;28;20256;-70
2021/12/21 09:19:14;;;;;;;8.13;2.50;;;26.70;99.90;;;;;;5075120;28;20187;-68
2021/12/21 09:21:41;;;;;;;8.27;2.07;;;26.80;99.90;;;;;;5070548;28;20223;-70
2021/12/21 09:24:13;;;;;;;8.37;2.43;;;26.90;99.90;;;;;;5076270;28;20179;-71
2021/12/21 09:26:40;;;;;;;8.10;2.63;;;26.80;99.90;;;;;;5072006;28;20523;-70
2021/12/21 09:29:07;;;;;;;11.20;1.73;;;26.90;99.90;;;;;;5075682;28;20181;-68
2021/12/21 09:31:35;;;;;;;9.57;1.90;;;26.90;99.90;;;;;;5083388;28;20656;-68
2021/12/21 09:34:03;;;;;;;5.70;1.80;;;26.80;99.90;;;;;;5077509;28;20175;-68
2021/12/21 09:36:31;;;;;;;11.20;2.47;;;26.80;99.90;;;;;;5079748;28;20183;-70
2021/12/21 09:38:59;;;;;;;5.93;1.67;;;26.90;99.90;;;;;;5074380;28;20183;-71
2021/12/21 09:41:27;;;;;;;10.10;2.43;;;26.80;99.90;;;;;;5075055;28;20183;-69
2021/12/21 09:43:55;;;;;;;7.57;1.90;;;26.80;99.90;;;;;;5075440;28;20235;-67
2021/12/21 09:46:22;;;;;;;11.43;4.60;;;26.80;99.90;;;;;;5074616;28;20183;-70
2021/12/21 09:48:49;;;;;;;6.47;2.03;;;26.70;99.90;;;;;;5075375;28;20179;-68
2021/12/21 09:51:17;;;;;;;10.50;3.70;;;26.70;99.90;;;;;;5075638;28;20200;-68
2021/12/21 09:53:44;;;;;;;8.63;3.20;;;26.60;99.90;;;;;;5068669;28;20218;-69
2021/12/21 09:56:14;;;;;;;10.37;3.30;;;26.60;99.90;;;;;;5074752;28;20220;-70
2021/12/21 09:58:42;;;;;;;7.30;2.43;;;26.60;99.90;;;;;;5084781;28;20619;-68
2021/12/21 10:01:09;;;;;;;8.93;2.70;;;26.70;99.90;;;;;;5075519;28;20528;-69
2021/12/21 10:03:37;;;;;;;10.10;2.97;;;26.80;99.90;;;;;;5074903;28;20187;-68
2021/12/21 10:06:10;;;;;;;7.50;2.37;;;26.80;99.90;;;;;;5078280;28;20191;-67
2021/12/21 10:08:39;;;;;;;8.73;2.50;;;26.80;99.90;;;;;;5071150;28;20259;-67
2021/12/21 10:11:16;;;;;;;7.50;2.40;;;26.80;99.90;;;;;;5072514;28;20547;-67
2021/12/21 10:13:43;;;;;;;7.87;3.20;;;26.80;99.90;;;;;;5073256;28;20695;-71
2021/12/21 10:16:11;;;;;;;10.80;2.97;;;26.90;99.90;;;;;;5073725;28;20187;-68
2021/12/21 10:18:41;;;;;;;10.83;3.87;;;26.90;99.90;;;;;;5074028;28;20187;-69
2021/12/21 10:21:14;;;;;;;6.70;1.70;;;26.90;99.90;;;;;;5056118;28;20183;-68
2021/12/21 10:23:45;;;;;;;4.60;1.43;;;26.90;99.90;;;;;;5073995;28;20167;-68
2021/12/21 10:26:30;;;;;;;9.57;2.33;;;26.90;99.90;;;;;;5070626;28;20272;-68
2021/12/21 10:29:02;;;;;;;9.07;2.13;;;27.00;99.90;;;;;;5075798;28;20220;-68
2021/12/21 10:31:36;;;;;;;10.03;2.13;;;26.90;99.90;;;;;;5078082;28;20232;-69
2021/12/21 10:34:12;;;;;;;9.30;2.13;;;26.90;99.90;;;;;;5074267;28;20278;-69
2021/12/21 10:36:51;;;;;;;7.57;1.87;;;26.90;99.90;;;;;;5056220;28;20590;-68
2021/12/21 10:39:30;;;;;;;12.10;2.63;;;26.80;99.90;;;;;;5073724;28;20199;-69
2021/12/21 10:42:02;;;;;;;7.67;2.37;;;26.80;99.90;;;;;;5060651;28;20190;-69
2021/12/21 10:44:30;;;;;;;9.00;1.97;;;26.70;99.90;;;;;;5073314;28;20213;-67
2021/12/21 10:46:57;;;;;;;8.13;2.17;;;26.70;99.90;;;;;;5073908;28;20179;-68
2021/12/21 10:49:29;;;;;;;10.43;2.37;;;26.70;99.90;;;;;;5074365;28;20179;-68
2021/12/21 10:51:57;;;;;;;12.30;2.50;;;26.70;99.90;;;;;;5076950;28;20290;-72
2021/12/21 10:54:51;;;;;;;8.17;1.90;;;26.70;99.90;;;;;;5071604;28;20623;-72
2021/12/21 10:57:20;;;;;;;7.13;2.13;;;26.60;99.90;;;;;;5076451;28;20230;-71
2021/12/21 10:59:50;;;;;;;16.87;2.47;;;26.60;99.90;;;;;;5075983;28;20187;-71
2021/12/21 11:02:24;;;;;;;8.87;2.20;;;26.50;99.90;;;;;;5073885;28;20202;-72
2021/12/21 11:04:57;;;;;;;8.80;1.80;;;26.40;99.90;;;;;;5073614;28;20183;-70
2021/12/21 11:10:00;;;;;;;14.83;3.23;;;26.40;99.90;;;;;;5087005;28;20214;-68
2021/12/21 11:12:29;;;;;;;14.57;2.63;;;26.40;99.90;;;;;;5077622;28;20219;-68
2021/12/21 11:15:00;;;;;;;16.80;3.37;;;26.20;99.90;;;;;;5080418;28;20183;-68
2021/12/21 11:17:28;;;;;;;14.80;3.13;;;26.20;99.90;;;;;;5078280;28;20278;-70
2021/12/21 11:19:58;;;;;;;11.70;3.37;;;26.00;99.90;;;;;;5071358;28;20183;-69
2021/12/21 11:22:26;;;;;;;13.43;2.63;;;25.90;99.90;;;;;;5081015;28;20663;-70
2021/12/21 11:24:55;;;;;;;16.43;3.13;;;25.70;99.90;;;;;;5076742;28;20187;-69
2021/12/21 11:27:26;;;;;;;13.30;2.70;;;25.60;99.90;;;;;;5079924;28;20240;-69
2021/12/21 11:30:01;;;;;;;12.13;2.17;;;25.60;99.90;;;;;;5078950;28;20248;-69
2021/12/21 11:32:34;;;;;;;14.07;2.90;;;25.50;99.90;;;;;;5072361;28;20556;-69
2021/12/21 11:37:40;;;;;;;14.73;2.90;;;25.50;99.90;;;;;;5067796;28;20175;-70
2021/12/21 11:40:11;;;;;;;11.90;2.37;;;25.50;99.90;;;;;;5072742;28;20191;-69
2021/12/21 11:42:43;;;;;;;12.83;3.23;;;25.50;99.90;;;;;;5073395;28;20183;-68
2021/12/21 11:45:27;;;;;;;17.37;3.13;;;25.50;99.90;;;;;;5072436;28;20218;-69
2021/12/21 11:48:18;;;;;;;14.40;2.77;;;25.50;99.90;;;;;;5073087;28;20183;-68
2021/12/21 11:50:48;;;;;;;19.30;3.27;;;25.40;99.90;;;;;;5072834;28;20654;-68
2021/12/21 11:53:18;;;;;;;15.27;3.30;;;25.40;99.90;;;;;;5069102;28;20780;-68
2021/12/21 11:55:49;;;;;;;15.90;3.47;;;25.30;99.90;;;;;;5073009;28;20183;-71
2021/12/21 11:58:36;;;;;;;20.20;3.43;;;25.40;99.90;;;;;;5072640;28;20218;-67
2021/12/21 12:01:19;;;;;;;21.53;3.40;;;25.30;99.90;;;;;;5072324;28;20175;-68
2021/12/21 12:04:09;;;;;;;15.63;3.03;;;25.20;99.90;;;;;;5070531;28;20198;-69
2021/12/21 12:06:49;;;;;;;16.20;3.73;;;25.10;99.90;;;;;;5066982;28;20276;-68
2021/12/21 12:09:30;;;;;;;17.27;3.57;;;25.10;99.90;;;;;;5069621;28;20543;-68
2021/12/21 12:12:15;;;;;;;18.97;3.40;;;25.10;99.90;;;;;;5069725;28;20233;-69
2021/12/21 12:14:45;;;;;;;22.57;3.57;;;25.10;99.90;;;;;;5066981;28;20184;-68
2021/12/21 12:17:22;;;;;;;18.10;3.13;;;25.10;99.90;;;;;;5072088;28;20274;-70
2021/12/21 12:20:02;;;;;;;17.43;3.87;;;25.00;99.90;;;;;;5072559;28;20244;-70
2021/12/21 12:22:38;;;;;;;21.67;4.57;;;24.90;99.90;;;;;;5065396;28;20195;-69
2021/12/21 12:25:13;;;;;;;15.00;3.93;;;24.80;99.90;;;;;;5071708;28;20179;-70
2021/12/21 12:27:49;;;;;;;20.13;4.07;;;24.70;99.90;;;;;;5072708;28;20190;-67
2021/12/21 12:30:25;;;;;;;21.57;3.60;;;24.60;99.90;;;;;;5071509;28;20182;-71
2021/12/21 12:33:00;;;;;;;16.00;2.97;;;24.60;99.90;;;;;;5071678;28;20221;-68
2021/12/21 12:35:31;;;;;;;17.47;3.20;;;24.60;99.90;;;;;;5064422;28;20191;-70
2021/12/21 12:38:04;;;;;;;24.70;3.80;;;24.60;99.90;;;;;;5071362;28;20292;-68
2021/12/21 12:40:52;;;;;;;14.70;2.93;;;24.50;99.90;;;;;;5072291;28;20171;-69
2021/12/21 12:43:26;;;;;;;21.10;3.70;;;24.50;99.90;;;;;;5071738;28;20179;-68
2021/12/21 12:46:03;;;;;;;19.40;3.47;;;24.40;99.90;;;;;;5072029;28;20187;-68
2021/12/21 12:48:43;;;;;;;18.47;3.10;;;24.30;99.90;;;;;;5065131;28;20266;-70
2021/12/21 12:51:34;;;;;;;21.63;3.80;;;24.30;99.90;;;;;;5071552;28;20182;-68
2021/12/21 12:54:12;;;;;;;11.50;2.80;;;24.30;99.90;;;;;;5071759;28;20243;-67
2021/12/21 12:56:43;;;;;;;14.80;3.33;;;24.30;99.90;;;;;;5071967;28;20230;-68
2021/12/21 12:59:10;;;;;;;16.00;3.30;;;24.20;99.90;;;;;;5071696;28;20240;-67
2021/12/21 13:01:44;;;;;;;22.60;4.23;;;24.10;99.90;;;;;;5071507;28;20175;-67
2021/12/21 13:04:14;;;;;;;27.07;8.30;;;24.10;99.90;;;;;;5071107;28;20167;-68
2021/12/21 13:06:46;;;;;;;21.20;4.33;;;24.10;99.90;;;;;;5066971;28;20186;-67
2021/12/21 13:09:18;;;;;;;19.33;3.80;;;24.10;99.90;;;;;;5071276;28;20179;-66
2021/12/21 13:11:45;;;;;;;26.73;4.00;;;24.00;99.90;;;;;;5074286;28;20183;-66
2021/12/21 13:14:18;;;;;;;18.97;3.13;;;24.00;99.90;;;;;;5076163;28;20177;-68
2021/12/21 13:16:49;;;;;;;18.60;3.40;;;23.90;99.90;;;;;;5071771;28;20712;-68
2021/12/21 13:19:19;;;;;;;14.33;3.47;;;23.90;99.90;;;;;;5071015;28;20179;-68
2021/12/21 13:22:01;;;;;;;17.93;3.00;;;23.80;99.90;;;;;;5065394;28;20210;-69
2021/12/21 13:24:35;;;;;;;23.17;3.27;;;23.70;99.90;;;;;;5070656;28;20179;-68
2021/12/21 13:27:11;;;;;;;22.83;4.00;;;23.70;99.90;;;;;;5068590;28;20183;-67
2021/12/21 13:29:39;;;;;;;31.43;3.93;;;23.70;99.90;;;;;;5071839;28;20266;-70
2021/12/21 13:32:14;;;;;;;16.03;3.40;;;23.70;99.90;;;;;;5070870;28;20271;-68
2021/12/21 13:34:44;;;;;;;32.20;4.80;;;23.60;99.90;;;;;;5071686;28;20202;-70
2021/12/21 13:37:13;;;;;;;23.67;3.47;;;23.60;99.90;;;;;;5071285;28;20285;-69
2021/12/21 13:39:46;;;;;;;23.73;3.90;;;23.50;99.90;;;;;;5071464;28;20179;-67
2021/12/21 13:42:18;;;;;;;22.43;3.80;;;23.50;99.90;;;;;;5071269;28;20567;-67
2021/12/21 13:44:55;;;;;;;19.63;2.50;;;23.60;99.90;;;;;;5071843;28;20567;-67
2021/12/21 13:47:32;;;;;;;14.67;2.23;;;23.60;99.90;;;;;;5071429;28;20636;-68
2021/12/21 13:50:13;;;;;;;19.13;2.53;;;23.50;99.90;;;;;;5071222;28;20648;-68
2021/12/21 13:52:44;;;;;;;16.00;2.77;;;23.60;99.90;;;;;;5066181;28;20294;-67
2021/12/21 13:55:42;;;;;;;8.07;1.97;;;23.50;99.90;;;;;;5072237;28;20183;-66
2021/12/21 13:58:11;;;;;;;12.30;1.93;;;23.40;99.90;;;;;;5074219;28;20226;-68
2021/12/21 14:00:51;;;;;;;7.67;1.70;;;23.40;99.90;;;;;;5075191;28;20163;-67
2021/12/21 14:03:32;;;;;;;18.83;1.70;;;23.40;99.90;;;;;;5081083;28;20277;-66
2021/12/21 14:06:09;;;;;;;9.40;1.77;;;23.40;99.90;;;;;;5074498;28;20668;-68
2021/12/21 14:08:38;;;;;;;4.57;1.77;;;23.40;99.90;;;;;;5074839;28;20190;-68